• Join FlightAware (Why Join?)
  • Login
  • US Flag 
04:31AM EDT


 

Airport Tracker/Info


-or-


 

Live Flight TrackerFlight Track Log ✈ AAL1326 ✈ 16-Apr-2013 ✈ KORD - KFLL

Flight Track Log - Related Links

Times and Time Zones

All times are in EDT time to prevent confusion due to time zone crossing. See the AAL1326 flight status page for this flight to view local times or setup timezone preferences in your user account.

Time Position Orientation Groundspeed Altitude Reporting Facility
EDT Latitude Longitude Course Direction KTS MPH feet Rate Location/Type
07:18PM 41.9833 -87.8667 180° South 170 196 2,200  Level Chicago TRACON
07:19PM 41.9333 -87.8167 143° Southeast 223 257 3,700 2,220 Climbing Chicago TRACON
07:20PM 41.7616 -87.7736 189° South  Level Estimated
07:21PM 41.6710 -87.8804 221° Southwest  Level FlightAware Approximate
07:22PM 41.5613 -87.8132 189° South  Level Estimated
07:22PM 41.8511 -87.9369 227° Southwest 267 307 9,500  Level Chicago Center
07:23PM 41.4516 -87.7462 194° South  Level Estimated
07:23PM 41.7978 -87.9969 220° Southwest 262 302 12,700  Level Chicago Center
07:24PM 41.3418 -87.6795 180° South  Level Estimated
07:24PM 41.7047 -88.0183 190° South 285 328 15,600  Level Chicago Center
07:25PM 41.6197 -88.0525 197° South 319 367 17,300 1,500 Climbing Chicago Center
07:26PM 41.5236 -88.0864 195° South 355 409 18,800 1,620 Climbing Chicago Center
07:27PM 41.4275 -88.1219 196° South 381 438 20,700 2,220 Climbing Chicago Center
07:28PM 41.2983 -88.1667 195° South 397 457 23,400 2,220 Climbing Chicago Center
07:29PM 41.1917 -88.2061 196° South 400 460 25,400 1,740 Climbing Chicago Center
07:30PM 41.0831 -88.2461 196° South 406 467 27,100 1,560 Climbing Chicago Center
07:31PM 40.9725 -88.2856 195° South 411 473 28,700 1,500 Climbing Chicago Center
07:32PM 40.8600 -88.3239 194° South 418 481 30,200 1,440 Climbing Chicago Center
07:33PM 40.7244 -88.3717 195° South 423 487 31,700 1,380 Climbing Chicago Center
07:34PM 40.6097 -88.4119 195° South 428 493 33,100 1,080 Climbing Chicago Center
07:35PM 40.4958 -88.4519 195° South 427 491 34,000 720 Climbing Chicago Center
07:36PM 40.3825 -88.4908 195° South 425 489 34,600 480 Climbing Chicago Center
07:37PM 40.2583 -88.5336 195° South 424 488 35,000 180 Climbing Chicago Center
07:38PM 40.1464 -88.5722 195° South 416 479 35,000  Level Chicago Center
07:39PM 40.0544 -88.6042 195° South 419 482 35,000  Level Kansas City Center
07:40PM 39.9422 -88.6442 195° South 417 480 35,000  Level Kansas City Center
07:41PM 39.8297 -88.6825 195° South 417 480 35,000  Level Kansas City Center
07:42PM 39.7169 -88.7214 195° South 418 481 35,000 240 Level Kansas City Center
07:43PM 39.5817 -88.7661 194° South 417 480 35,600 420 Climbing Kansas City Center
07:44PM 39.4686 -88.8058 195° South 419 482 36,000 180 Climbing Kansas City Center
07:45PM 39.3650 -88.8428 195° South 415 478 36,000  Level Kansas City Center
07:46PM 39.2533 -88.8817 195° South 414 476 36,000  Level Kansas City Center
07:47PM 39.1422 -88.9189 195° South 413 475 36,000  Level Kansas City Center
07:48PM 39.0083 -88.9622 194° South 412 474 36,000  Level Kansas City Center
07:49PM 38.8919 -89.0014 195° South 411 473 36,000  Level Kansas City Center
07:50PM 38.7831 -89.0372 194° South 405 466 36,000  Level Kansas City Center
07:51PM 38.6744 -89.0739 195° South 404 465 36,000  Level Kansas City Center
07:52PM 38.5575 -89.1136 195° South 403 464 36,000  Level Kansas City Center
07:53PM 38.4472 -89.1492 194° South 406 467 36,000  Level Kansas City Center
07:55PM 38.3350 -89.1797 192° South 410 472 36,000  Level Kansas City Center
07:56PM 38.2136 -89.2114 192° South 412 474 36,000  Level Kansas City Center
07:57PM 38.1017 -89.2386 191° South 411 473 36,000  Level Kansas City Center
07:58PM 37.9881 -89.2675 191° South 414 476 36,000  Level Kansas City Center
07:59PM 37.8647 -89.2981 191° South 417 480 36,000 60 Level Kansas City Center
08:00PM 37.7572 -89.3217 190° South 408 470 36,200 480 Climbing Kansas City Center
08:01PM 37.6444 -89.3506 191° South 410 472 37,000 360 Climbing Kansas City Center
08:02PM 37.5267 -89.3283 171° South 448 516 37,000  Level Kansas City Center
08:03PM 37.4142 -89.2558 153° Southeast 456 525 37,000  Level Kansas City Center
08:03PM 37.3475 -89.2247 160° South 435 501 37,000  Level Memphis Center
08:04PM 37.2344 -89.1533 153° Southeast 447 514 37,000  Level Memphis Center
08:05PM 37.1211 -89.0875 155° Southeast 452 520 37,000  Level Memphis Center
08:06PM 37.0100 -89.0164 153° Southeast 447 514 37,000  Level Memphis Center
08:07PM 36.8967 -88.9483 154° Southeast 447 514 37,000  Level Memphis Center
08:08PM 36.7856 -88.8803 154° Southeast 447 514 37,000  Level Memphis Center
08:09PM 36.6700 -88.8125 155° Southeast 447 514 37,000  Level Memphis Center
08:10PM 36.5672 -88.7500 154° Southeast 447 514 37,000  Level Memphis Center
08:11PM 36.4536 -88.6800 154° Southeast 447 514 37,000  Level Memphis Center
08:12PM 36.3358 -88.6103 155° Southeast 453 521 37,000  Level Memphis Center
08:13PM 36.2225 -88.5458 155° Southeast 453 521 37,000  Level Memphis Center
08:14PM 36.1067 -88.4764 154° Southeast 453 521 37,000  Level Memphis Center
08:15PM 35.9931 -88.4097 155° Southeast 453 521 37,000  Level Memphis Center
08:16PM 35.8794 -88.3433 155° Southeast 448 516 37,000  Level Memphis Center
08:17PM 35.7636 -88.2797 156° South 448 516 37,000  Level Memphis Center
08:18PM 35.6519 -88.2108 153° Southeast 448 516 37,000  Level Memphis Center
08:19PM 35.5236 -88.1453 157° South 448 516 37,000  Level Memphis Center
08:20PM 35.4097 -88.0797 155° Southeast 448 516 37,000  Level Memphis Center
08:21PM 35.3086 -88.0189 154° Southeast 448 516 37,000  Level Memphis Center
08:22PM 35.1947 -87.9558 156° South 448 516 37,000  Level Memphis Center
08:23PM 35.0808 -87.8856 153° Southeast 448 516 37,000  Level Memphis Center
08:24PM 34.9606 -87.8233 157° South 453 521 37,000  Level Memphis Center
08:25PM 34.8336 -87.7436 153° Southeast 465 535 37,000  Level Memphis Center
08:26PM 34.7156 -87.6789 156° South 465 535 37,000  Level Memphis Center
08:28PM 34.4914 -87.5519 155° Southeast 447 514 37,000  Level Atlanta Center
08:29PM 34.3658 -87.4914 158° South 473 544 37,000  Level Atlanta Center
08:30PM 34.2447 -87.4161 153° Southeast 490 564 37,000  Level Atlanta Center
08:31PM 34.1342 -87.3314 148° Southeast 478 550 37,000  Level Atlanta Center
08:32PM 34.0283 -87.2372 144° Southeast 478 550 37,000  Level Atlanta Center
08:33PM 33.9200 -87.1431 144° Southeast 478 550 37,000  Level Atlanta Center
08:34PM 33.8117 -87.0489 144° Southeast 478 550 37,000  Level Atlanta Center
08:35PM 33.7053 -86.9578 145° Southeast 483 556 37,000  Level Atlanta Center
08:36PM 33.5950 -86.8619 144° Southeast 483 556 37,000  Level Atlanta Center
08:37PM 33.4844 -86.7686 145° Southeast 488 562 37,000  Level Atlanta Center
08:38PM 33.3736 -86.6731 144° Southeast 488 562 37,000  Level Atlanta Center
08:39PM 33.2794 -86.5933 145° Southeast 488 562 37,000  Level Atlanta Center
08:40PM 33.1686 -86.5006 145° Southeast 481 554 37,000  Level Atlanta Center
08:41PM 33.0597 -86.4033 143° Southeast 487 560 37,000  Level Atlanta Center
08:42PM 32.9467 -86.3161 147° Southeast 487 560 37,000  Level Atlanta Center
08:43PM 32.8311 -86.2489 154° Southeast 478 550 37,000  Level Atlanta Center
08:44PM 32.7092 -86.1817 155° Southeast 472 543 37,000  Level Atlanta Center
08:45PM 32.5933 -86.1122 153° Southeast 472 543 37,000  Level Atlanta Center
08:46PM 32.4633 -86.0281 151° Southeast 479 551 37,000  Level Atlanta Center
08:49PM 32.2106 -85.7997 143° Southeast 477 549 37,000  Level Jacksonville Center
08:50PM 32.0997 -85.7056 144° Southeast 482 555 37,000  Level Jacksonville Center
08:51PM 31.9933 -85.6139 144° Southeast 487 560 37,000  Level Jacksonville Center
08:52PM 31.8825 -85.5178 144° Southeast 487 560 37,000  Level Jacksonville Center
08:53PM 31.7758 -85.4244 143° Southeast 487 560 37,000  Level Jacksonville Center
08:54PM 31.6669 -85.3311 144° Southeast 487 560 37,000  Level Jacksonville Center
08:55PM 31.5581 -85.2381 144° Southeast 487 560 37,000  Level Jacksonville Center
08:56PM 31.4492 -85.1453 144° Southeast 487 560 37,000  Level Jacksonville Center
08:57PM 31.3275 -85.0547 148° Southeast 482 555 37,000  Level Jacksonville Center
08:58PM 31.2142 -84.9647 146° Southeast 482 555 37,000  Level Jacksonville Center
08:59PM 31.0989 -84.8747 146° Southeast 482 555 37,000  Level Jacksonville Center
09:00PM 30.9872 -84.7875 146° Southeast 482 555 37,000  Level Jacksonville Center
09:01PM 30.8717 -84.6981 146° Southeast 487 560 37,000  Level Jacksonville Center
09:02PM 30.7622 -84.6092 145° Southeast 487 560 37,000  Level Jacksonville Center
09:03PM 30.6508 -84.5225 146° Southeast 487 560 37,000  Level Jacksonville Center
09:04PM 30.5369 -84.4339 146° Southeast 487 560 37,000  Level Jacksonville Center
09:05PM 30.4231 -84.3475 147° Southeast 487 560 37,000  Level Jacksonville Center
09:06PM 30.3114 -84.2642 147° Southeast 487 560 37,000 -60 Level Jacksonville Center
09:07PM 30.2203 -84.1906 145° Southeast 487 560 36,900 -60 Descending Jacksonville Center
09:08PM 30.0958 -84.1003 148° Southeast 487 560 36,900  Level Jacksonville Center
09:09PM 29.9819 -84.0147 147° Southeast 487 560 36,900  Level Jacksonville Center
09:10PM 29.8697 -83.9322 147° Southeast 487 560 37,000  Climbing Jacksonville Center
09:11PM 29.7578 -83.8447 146° Southeast 487 560 37,000 -60 Level Jacksonville Center
09:12PM 29.6456 -83.7600 147° Southeast 482 555 36,900  Descending Jacksonville Center
09:13PM 29.5333 -83.6756 147° Southeast 482 555 37,000  Climbing Jacksonville Center
09:14PM 29.4192 -83.5911 147° Southeast 477 549 36,900  Descending Jacksonville Center
09:15PM 29.3067 -83.5047 146° Southeast 482 555 37,000  Climbing Jacksonville Center
09:16PM 29.1778 -83.4111 148° Southeast 488 562 37,000  Level Jacksonville Center
09:17PM 29.0653 -83.3250 146° Southeast 493 567 37,000 -60 Level Jacksonville Center
09:18PM 28.9508 -83.2414 147° Southeast 493 567 36,900  Descending Jacksonville Center
09:19PM 28.8383 -83.1556 146° Southeast 493 567 37,000  Climbing Jacksonville Center
09:20PM 28.7236 -83.0725 148° Southeast 498 573 36,900  Descending Jacksonville Center
09:21PM 28.6089 -82.9872 147° Southeast 498 573 37,000  Climbing Jacksonville Center
09:22PM 28.5089 -82.9161 148° Southeast 493 567 36,900  Descending Jacksonville Center
09:23PM 28.3983 -82.8336 147° Southeast 482 555 37,000  Climbing Jacksonville Center
09:25PM 28.1342 -82.6431 148° Southeast 487 560 37,000  Level Miami Center
09:26PM 28.0242 -82.5739 151° Southeast 487 560 37,000  Level Miami Center
09:27PM 27.9011 -82.5231 160° South 487 560 37,000  Level Miami Center
09:28PM 27.7800 -82.4725 160° South 476 548 37,000 -360 Level Miami Center
09:29PM 27.6544 -82.4264 162° South 476 548 36,300 -900 Descending Miami Center
09:30PM 27.5167 -82.3706 160° South 471 542 35,200 -1,020 Descending Miami Center
09:31PM 27.3892 -82.3225 161° South 484 557 34,300 -900 Descending Miami Center
09:32PM 27.2639 -82.2722 160° South 484 557 33,400 -660 Descending Miami Center
09:33PM 27.1489 -82.2200 158° South 489 563 33,000 -420 Descending Miami Center
09:34PM 27.0383 -82.1056 137° Southeast 489 563 32,600 -1,620 Descending Miami Center
09:35PM 26.9422 -81.9917 133° Southeast 489 563 29,800 -2,640 Descending Miami Center
09:36PM 26.8522 -81.8783 132° Southeast 494 568 27,400 -2,460 Descending Miami Center
09:37PM 26.7642 -81.7700 132° Southeast 482 555 24,900 -2,400 Descending Miami Center
09:38PM 26.6778 -81.6642 132° Southeast 475 547 22,600 -1,980 Descending Miami Center
09:39PM 26.5975 -81.5656 132° Southeast 438 504 21,000 -1,800 Descending Miami Center
09:40PM 26.5192 -81.4719 133° Southeast 419 482 19,100 -1,920 Descending Miami Center
09:41PM 26.4528 -81.3883 132° Southeast 404 465 17,200 -2,220 Descending Miami Center
09:42PM 26.3783 -81.2994 133° Southeast 398 458 14,700 -2,460 Descending Miami Center
09:43PM 26.3081 -81.2111 132° Southeast 392 451 12,300 -2,460 Descending Miami Center
09:43PM 26.2594 -81.1608 137° Southeast 376 433 11,100 -1,920 Descending Miami Center
09:44PM 26.2353 -81.1300 131° Southeast 380 437 10,400 -1,440 Descending Miami Center
09:45PM 26.1686 -81.0533 134° Southeast 290 334 9,000 -1,200 Descending Miami Center
09:46PM 26.1264 -80.9942 128° Southeast 305 351 8,000 -960 Descending Miami Center
09:47PM 26.1036 -80.9147 108° East 267 307 7,100 -1,020 Descending Miami Center
09:48PM 26.0994 -80.8336 93° East 260 299 6,000 -600 Descending Miami Center
09:49PM 26.0956 -80.7456 93° East 255 293 5,900 -300 Descending Miami Center
09:50PM 26.0878 -80.6481 95° East 267 307 5,400 -480 Descending Miami Center
09:51PM 26.0892 -80.5858 89° East 260 299 5,000 -420 Descending Miami Center
09:52PM 26.0847 -80.5161 94° East 236 272 4,700 -600 Descending Miami Center
09:53PM 26.0822 -80.4492 92° East 218 251 3,800 -780 Descending Miami Center
09:54PM 26.0736 -80.3747 97° East 208 239 3,000 -660 Descending Miami Center